Time;durP1;ratioP1;P1;durP2;ratioP2;P2;SDS_P1;SDS_P2;PMS_P1;PMS_P2;Temp;Humidity;BMP_temperature;BMP_pressure;BME280_temperature;BME280_humidity;BME280_pressure;Samples;Min_cycle;Max_cycle;Signal;HPM_P1;HPM_P2
2022/01/20 05:45:13;;;;;;;0.65;0.65;;;;;;;-1.41;67.23;100054.34;4708314;27;20095;-68
2022/01/20 05:47:45;;;;;;;0.70;0.70;;;;;;;-1.36;66.94;100054.66;4378109;32;33795;-68
2022/01/20 05:50:20;;;;;;;0.60;0.60;;;;;;;-1.43;67.43;100048.34;4378364;32;32513;-68
2022/01/20 05:52:48;;;;;;;11.18;5.57;;;;;;;-1.69;68.05;100041.31;4378714;32;34182;-68
2022/01/20 05:55:18;;;;;;;7.32;4.30;;;;;;;-1.73;68.55;100037.31;4378226;32;33731;-67
2022/01/20 05:57:46;;;;;;;33.47;17.67;;;;;;;-1.98;69.42;100041.72;4377361;32;33946;-67
2022/01/20 06:00:22;;;;;;;2.85;2.62;;;;;;;-2.20;69.97;100054.59;4376423;32;34121;-68
2022/01/20 06:05:39;;;;;;;0.73;0.73;;;;;;;-2.29;71.41;100071.47;4377410;32;33722;-68
2022/01/20 06:08:07;;;;;;;0.50;0.50;;;;;;;-1.59;68.35;100062.47;4376987;32;34064;-68
2022/01/20 06:10:35;;;;;;;0.82;0.82;;;;;;;-1.91;68.53;100053.38;4377229;32;35036;-68
2022/01/20 06:13:03;;;;;;;2.28;2.08;;;;;;;-1.57;67.80;100055.97;4365176;32;34711;-68
2022/01/20 06:15:32;;;;;;;2.47;2.28;;;;;;;-1.79;68.35;100053.91;4377528;32;34446;-66
2022/01/20 06:18:00;;;;;;;2.15;1.77;;;;;;;-1.25;66.82;100043.72;4378414;32;34060;-67
2022/01/20 06:20:27;;;;;;;0.93;0.93;;;;;;;-1.68;69.10;100043.81;4377277;32;34171;-67
2022/01/20 06:22:55;;;;;;;7.57;4.72;;;;;;;-1.38;70.36;100032.72;4375487;32;34313;-68
2022/01/20 06:25:22;;;;;;;1.60;1.50;;;;;;;-1.54;72.31;100038.84;4377197;32;34540;-67
2022/01/20 06:27:50;;;;;;;0.75;0.75;;;;;;;-1.14;72.35;100030.09;4378157;32;34766;-69
2022/01/20 06:30:18;;;;;;;1.65;1.50;;;;;;;-1.14;74.47;100035.41;4377797;32;33971;-67
2022/01/20 06:32:46;;;;;;;34.25;15.27;;;;;;;-0.79;73.75;100035.25;4377998;32;34135;-72
2022/01/20 06:35:15;;;;;;;32.00;17.77;;;;;;;-0.44;72.91;100034.00;4377231;32;33818;-71
2022/01/20 06:37:43;;;;;;;1.33;1.23;;;;;;;-0.75;74.31;100042.72;4378093;32;34772;-70
2022/01/20 06:40:11;;;;;;;35.20;17.30;;;;;;;-0.48;73.95;100046.81;4378429;32;34043;-71
2022/01/20 06:42:39;;;;;;;1.65;1.15;;;;;;;-0.48;73.61;100049.50;4371360;32;34872;-71
2022/01/20 06:45:10;;;;;;;1.00;0.95;;;;;;;0.01;72.26;100040.53;4376013;32;33838;-69
2022/01/20 06:47:38;;;;;;;13.77;7.30;;;;;;;0.13;71.70;100043.63;4368312;32;34588;-70
2022/01/20 06:50:08;;;;;;;27.85;14.38;;;;;;;0.21;71.16;100040.94;4361160;32;33856;-69
2022/01/20 06:52:37;;;;;;;32.63;16.75;;;;;;;0.13;71.73;100039.16;4362004;32;34899;-67
2022/01/20 06:55:07;;;;;;;30.00;15.40;;;;;;;0.15;71.03;100028.28;4363194;32;33618;-68
2022/01/20 06:57:35;;;;;;;1.75;1.50;;;;;;;0.05;71.50;100033.84;4361839;32;34723;-67
2022/01/20 07:00:05;;;;;;;29.10;15.43;;;;;;;0.49;70.11;100030.59;4361371;32;32690;-68
2022/01/20 07:02:33;;;;;;;28.90;15.65;;;;;;;0.37;69.79;100029.38;4362816;32;35025;-68
2022/01/20 07:05:01;;;;;;;29.92;14.65;;;;;;;0.37;70.18;100024.03;4347256;32;33197;-67
2022/01/20 07:07:30;;;;;;;27.80;15.02;;;;;;;0.52;69.85;100016.06;4362020;32;34737;-66
2022/01/20 07:09:58;;;;;;;26.98;14.90;;;;;;;1.08;68.08;100015.81;4354382;32;35182;-67
2022/01/20 07:12:27;;;;;;;29.92;16.02;;;;;;;1.26;66.75;100018.19;4360599;32;33322;-68
2022/01/20 07:14:55;;;;;;;27.75;16.80;;;;;;;1.48;66.39;100011.09;4360017;32;34469;-68
2022/01/20 07:17:23;;;;;;;17.52;10.13;;;;;;;0.97;67.92;100011.72;4359924;32;34932;-66
2022/01/20 07:19:51;;;;;;;31.55;18.27;;;;;;;0.71;68.98;100006.75;4360951;32;34185;-69
2022/01/20 07:22:19;;;;;;;37.90;20.10;;;;;;;0.45;70.34;100005.25;4361445;32;34867;-66
2022/01/20 07:24:48;;;;;;;34.92;21.83;;;;;;;0.55;70.51;99997.03;4361088;32;34548;-66
2022/01/20 07:27:16;;;;;;;32.22;16.42;;;;;;;0.78;69.74;100002.38;4358207;32;35429;-71
2022/01/20 07:29:44;;;;;;;1.33;1.23;;;;;;;1.21;67.73;99990.16;4361278;32;34182;-71
2022/01/20 07:32:11;;;;;;;34.30;17.65;;;;;;;1.12;67.61;99982.38;4361428;32;34330;-68
2022/01/20 07:34:39;;;;;;;2.05;0.98;;;;;;;1.09;68.10;99988.09;4361335;32;33364;-69
2022/01/20 07:37:07;;;;;;;31.62;18.85;;;;;;;1.21;68.17;99990.16;4360056;32;33589;-69
2022/01/20 07:39:34;;;;;;;33.35;18.33;;;;;;;0.88;69.85;99986.94;4359889;32;35174;-69
2022/01/20 07:42:03;;;;;;;31.90;18.50;;;;;;;1.35;68.56;99990.34;4360129;32;34678;-68
2022/01/20 07:44:42;;;;;;;30.45;18.35;;;;;;;1.62;67.27;99986.19;4360593;32;34526;-68
2022/01/20 07:47:12;;;;;;;10.25;4.78;;;;;;;1.30;68.00;99985.56;4359726;32;32971;-69
2022/01/20 07:49:40;;;;;;;40.90;22.87;;;;;;;1.14;68.43;99978.50;4361156;32;34161;-66
2022/01/20 07:52:10;;;;;;;2.50;2.12;;;;;;;1.09;69.52;99982.75;4360687;32;34193;-66
2022/01/20 07:54:38;;;;;;;37.78;21.67;;;;;;;1.56;68.55;99978.94;4360556;32;33552;-66
2022/01/20 07:57:07;;;;;;;38.22;22.58;;;;;;;1.61;68.18;99981.88;4359748;32;33998;-66
2022/01/20 07:59:34;;;;;;;38.33;21.08;;;;;;;1.24;69.93;99978.25;4358396;32;34156;-74
2022/01/20 08:02:03;;;;;;;37.05;21.85;;;;;;;0.89;70.91;99972.56;4360723;32;34671;-68
2022/01/20 08:04:32;;;;;;;3.35;2.17;;;;;;;1.42;69.89;99993.94;4361063;32;34749;-65
2022/01/20 08:07:00;;;;;;;2.05;1.85;;;;;;;1.90;67.54;99990.88;4361149;32;34820;-64
2022/01/20 08:09:27;;;;;;;35.63;21.02;;;;;;;2.32;66.12;99997.38;4360231;32;34103;-67
2022/01/20 08:12:15;;;;;;;29.42;18.77;;;;;;;2.08;66.54;99990.50;4360765;32;34772;-75
2022/01/20 08:14:43;;;;;;;2.20;1.40;;;;;;;2.21;66.67;99993.34;4361162;32;34316;-76
2022/01/20 08:17:10;;;;;;;31.52;18.87;;;;;;;2.27;67.50;99992.59;4361532;32;34067;-73
2022/01/20 08:19:38;;;;;;;0.70;0.70;;;;;;;2.37;67.23;99994.94;4361233;32;34840;-72
2022/01/20 08:22:06;;;;;;;4.32;2.05;;;;;;;2.52;66.05;99993.06;4361478;32;33477;-75
2022/01/20 08:24:54;;;;;;;31.50;18.08;;;;;;;2.86;64.92;99991.53;4359771;32;34586;-76
2022/01/20 08:27:22;;;;;;;28.55;17.25;;;;;;;2.08;68.54;99983.31;4347756;32;33117;-73
2022/01/20 08:29:49;;;;;;;31.20;17.23;;;;;;;2.00;68.59;99986.91;4361748;32;33922;-69
2022/01/20 08:32:17;;;;;;;32.10;18.60;;;;;;;2.12;68.02;99994.47;4363095;32;34223;-70
2022/01/20 08:34:45;;;;;;;30.40;17.60;;;;;;;2.39;67.03;99996.41;4361499;32;34624;-72
2022/01/20 08:37:14;;;;;;;28.33;17.17;;;;;;;2.45;67.21;100011.72;4362130;32;34540;-71
2022/01/20 08:39:43;;;;;;;28.27;16.50;;;;;;;2.78;66.23;99999.69;4363248;32;34009;-74
2022/01/20 08:42:11;;;;;;;1.27;0.95;;;;;;;3.08;65.40;99993.16;4361787;32;31965;-77
2022/01/20 08:44:39;;;;;;;29.98;17.70;;;;;;;3.35;65.37;100006.78;4362815;32;33605;-70
2022/01/20 08:47:20;;;;;;;29.23;16.12;;;;;;;3.32;64.53;99984.88;4361884;32;34040;-72
2022/01/20 08:49:48;;;;;;;27.85;16.08;;;;;;;3.22;63.98;99977.19;4362148;32;34101;-70
2022/01/20 08:52:17;;;;;;;30.12;16.02;;;;;;;3.23;63.94;99966.25;4362900;32;35033;-74
2022/01/20 08:54:47;;;;;;;36.15;19.10;;;;;;;2.98;64.14;99971.22;4361879;32;34312;-70
2022/01/20 08:57:15;;;;;;;29.50;18.45;;;;;;;2.88;64.65;99974.22;4361887;32;33437;-70
2022/01/20 08:59:43;;;;;;;32.30;18.55;;;;;;;2.87;65.24;99977.09;4363034;32;35006;-73
2022/01/20 09:02:12;;;;;;;29.90;17.17;;;;;;;2.87;64.74;99971.72;4363141;32;34247;-72
2022/01/20 09:04:40;;;;;;;26.52;15.93;;;;;;;2.65;65.51;99976.28;4361506;32;33590;-72
2022/01/20 09:07:09;;;;;;;26.17;15.15;;;;;;;2.71;65.86;99982.75;4362803;32;35013;-74
2022/01/20 09:09:42;;;;;;;25.90;15.32;;;;;;;2.94;64.90;99985.19;4349433;32;33418;-71
2022/01/20 09:17:30;;;;;;;2.33;1.70;;;;;;;3.04;64.53;99993.72;4362771;32;34938;-69
2022/01/20 09:19:59;;;;;;;1.62;1.52;;;;;;;3.04;64.44;99993.72;4361802;32;33962;-69
2022/01/20 09:22:29;;;;;;;26.67;15.02;;;;;;;3.57;62.61;99991.44;4363069;32;34218;-69
2022/01/20 09:24:56;;;;;;;25.83;14.40;;;;;;;2.93;64.76;100003.13;4361233;32;34343;-73
2022/01/20 09:27:25;;;;;;;2.17;1.62;;;;;;;2.74;66.16;99993.87;4361560;32;34064;-70
2022/01/20 09:29:53;;;;;;;26.62;15.45;;;;;;;2.42;67.03;100000.59;4363080;32;34208;-70
2022/01/20 09:32:23;;;;;;;25.10;14.05;;;;;;;2.67;65.68;99988.47;4362900;32;34361;-67
2022/01/20 09:34:52;;;;;;;30.23;15.02;;;;;;;2.87;65.79;99988.66;4362584;32;33870;-76
2022/01/20 09:37:21;;;;;;;26.87;14.27;;;;;;;2.73;67.02;99989.56;4362558;32;33808;-78
2022/01/20 09:39:48;;;;;;;28.02;15.07;;;;;;;3.18;64.77;100002.72;4362972;32;34029;-71
2022/01/20 09:42:18;;;;;;;1.30;1.20;;;;;;;3.49;64.38;99991.59;4362120;32;35009;-77
2022/01/20 09:44:47;;;;;;;24.37;13.93;;;;;;;3.74;63.22;99989.28;4361015;32;33760;-80
2022/01/20 09:47:19;;;;;;;1.55;1.45;;;;;;;3.79;62.76;99992.19;4361483;32;33516;-77
2022/01/20 09:49:48;;;;;;;27.15;14.27;;;;;;;3.31;65.08;100000.16;4361619;32;34292;-80
2022/01/20 09:52:21;;;;;;;25.85;14.43;;;;;;;2.84;65.36;99991.72;4362732;32;34364;-79
2022/01/20 09:54:50;;;;;;;1.73;1.45;;;;;;;3.19;64.10;99990.97;4362747;32;33459;-76
2022/01/20 09:57:18;;;;;;;20.08;11.48;;;;;;;3.89;62.96;99986.47;4362767;32;34029;-80
2022/01/20 09:59:46;;;;;;;1.27;1.12;;;;;;;3.72;65.01;99982.47;4361343;32;35477;-80
2022/01/20 10:02:18;;;;;;;15.27;9.68;;;;;;;4.08;65.30;99974.97;4362756;32;34903;-81
2022/01/20 10:04:46;;;;;;;14.52;8.48;;;;;;;4.07;65.46;99977.84;4362289;32;34738;-78
2022/01/20 10:07:15;;;;;;;16.58;9.05;;;;;;;4.44;64.19;99978.37;4362775;32;34633;-71
2022/01/20 10:09:49;;;;;;;17.90;9.60;;;;;;;4.44;64.19;99973.00;4361686;32;35187;-71
2022/01/20 10:12:19;;;;;;;17.50;9.65;;;;;;;4.32;64.74;99976.28;4349059;32;34220;-70
2022/01/20 10:14:49;;;;;;;18.45;10.05;;;;;;;4.79;63.21;99986.31;4361253;32;34279;-71
2022/01/20 10:17:25;;;;;;;14.93;8.75;;;;;;;4.38;65.13;99979.19;4361488;32;34454;-71
2022/01/20 10:19:54;;;;;;;15.95;8.57;;;;;;;4.09;66.61;99981.16;4361351;32;34183;-71
2022/01/20 10:22:24;;;;;;;15.43;8.23;;;;;;;4.24;67.93;99975.66;4362692;32;34249;-70
2022/01/20 10:25:08;;;;;;;15.27;8.70;;;;;;;4.30;68.61;99964.94;4362225;32;33676;-70
2022/01/20 10:27:50;;;;;;;17.35;8.98;;;;;;;4.24;68.64;99965.72;4361545;32;34695;-81
2022/01/20 10:30:18;;;;;;;13.95;8.70;;;;;;;4.23;69.94;99958.72;4362584;32;35105;-71
2022/01/20 10:32:48;;;;;;;12.50;7.75;;;;;;;4.70;68.69;99946.19;4349118;32;33284;-72
2022/01/20 10:35:18;;;;;;;13.82;8.20;;;;;;;4.63;69.33;99947.22;4361955;32;33647;-71
2022/01/20 10:38:14;;;;;;;15.55;7.85;;;;;;;5.17;68.16;99948.06;4360991;32;33773;-69
2022/01/20 10:40:50;;;;;;;13.23;7.95;;;;;;;4.74;69.62;99943.91;4359957;32;34243;-70
2022/01/20 10:43:23;;;;;;;9.63;6.40;;;;;;;4.82;69.96;99937.53;4361949;32;34814;-71
2022/01/20 10:46:06;;;;;;;11.50;6.45;;;;;;;4.73;70.15;99932.34;4362135;32;33703;-70
2022/01/20 10:48:34;;;;;;;0.95;0.80;;;;;;;4.45;71.46;99920.91;4362082;32;34509;-70
2022/01/20 10:51:02;;;;;;;10.60;6.50;;;;;;;4.76;70.88;99930.28;4361095;32;34519;-68
2022/01/20 10:53:30;;;;;;;10.70;5.70;;;;;;;4.52;71.38;99921.78;4359932;32;34007;-70
2022/01/20 10:56:06;;;;;;;0.60;0.60;;;;;;;4.70;70.72;99923.84;4361044;32;34112;-71
2022/01/20 10:58:34;;;;;;;7.82;4.80;;;;;;;4.75;71.55;99912.47;4362083;32;34413;-69
2022/01/20 11:01:04;;;;;;;9.57;5.15;;;;;;;4.97;70.25;99911.25;4362308;32;35198;-69
2022/01/20 11:03:35;;;;;;;8.20;5.18;;;;;;;4.80;71.00;99894.72;4361844;32;34212;-72
2022/01/20 11:06:03;;;;;;;8.93;5.00;;;;;;;4.75;71.35;99897.16;4361993;32;33342;-73
2022/01/20 11:08:31;;;;;;;9.65;5.70;;;;;;;4.72;71.48;99876.91;4362369;32;33952;-73
2022/01/20 11:11:01;;;;;;;9.90;5.80;;;;;;;5.03;70.97;99877.31;4360927;32;34071;-70
2022/01/20 11:13:30;;;;;;;8.18;4.30;;;;;;;5.20;70.77;99881.19;4346987;32;34285;-70
2022/01/20 11:15:57;;;;;;;8.13;4.72;;;;;;;5.12;69.62;99876.06;4360787;32;33682;-69
2022/01/20 11:18:27;;;;;;;9.23;5.07;;;;;;;5.30;68.88;99886.16;4362160;32;33884;-71
2022/01/20 11:20:56;;;;;;;7.87;4.62;;;;;;;5.43;68.16;99875.34;4362179;32;34267;-70
2022/01/20 11:23:35;;;;;;;8.13;4.68;;;;;;;5.32;68.49;99879.53;4362035;32;33998;-71
2022/01/20 11:26:06;;;;;;;10.55;5.40;;;;;;;5.17;69.25;99889.69;4361030;32;34595;-74
2022/01/20 11:28:34;;;;;;;6.60;4.07;;;;;;;5.68;66.94;99886.25;4362277;32;34100;-72
2022/01/20 11:31:05;;;;;;;7.90;4.37;;;;;;;5.09;68.00;99871.91;4348458;32;34425;-75
2022/01/20 11:33:38;;;;;;;6.62;4.05;;;;;;;5.35;67.38;99857.56;4360574;32;34079;-71
2022/01/20 11:36:28;;;;;;;6.03;3.78;;;;;;;5.08;68.00;99850.63;4360631;32;34111;-72
2022/01/20 11:39:20;;;;;;;7.68;3.70;;;;;;;5.16;67.35;99828.84;4361837;32;33854;-72
2022/01/20 11:41:49;;;;;;;6.18;3.35;;;;;;;5.26;66.93;99814.97;4360419;32;34208;-71
2022/01/20 11:44:19;;;;;;;0.85;0.70;;;;;;;5.16;67.14;99820.78;4361367;32;34762;-72
2022/01/20 11:46:49;;;;;;;6.90;3.83;;;;;;;5.65;65.43;99818.53;4360271;32;34276;-69
2022/01/20 11:49:19;;;;;;;7.25;3.90;;;;;;;5.27;66.68;99803.16;4360622;32;33118;-72
2022/01/20 11:51:59;;;;;;;5.12;3.50;;;;;;;4.96;67.22;99798.53;4360337;32;34008;-70
2022/01/20 11:54:32;;;;;;;6.72;3.97;;;;;;;5.13;67.21;99805.09;4361276;32;34833;-69
2022/01/20 11:57:16;;;;;;;5.53;3.70;;;;;;;5.23;66.63;99800.09;4361685;32;33447;-79
2022/01/20 11:59:51;;;;;;;6.47;3.85;;;;;;;4.98;67.22;99797.28;4361536;32;34036;-72
2022/01/20 12:02:32;;;;;;;6.95;4.07;;;;;;;4.88;67.43;99799.56;4361671;32;35077;-70
2022/01/20 12:05:04;;;;;;;21.25;8.40;;;;;;;5.01;67.27;99793.31;4361707;32;34563;-72
2022/01/20 12:07:34;;;;;;;23.92;14.57;;;;;;;5.22;66.26;99786.84;4363424;32;34539;-71
2022/01/20 12:10:14;;;;;;;62.08;34.63;;;;;;;4.76;67.44;99785.13;4361968;32;33895;-71
2022/01/20 12:12:42;;;;;;;8.30;5.00;;;;;;;5.17;66.70;99789.38;4362042;32;35001;-71
2022/01/20 12:15:18;;;;;;;5.53;4.03;;;;;;;5.19;66.08;99777.34;4361689;32;33527;-74
2022/01/20 12:17:55;;;;;;;7.95;6.03;;;;;;;5.57;64.45;99771.16;4362312;32;34478;-74
2022/01/20 12:20:24;;;;;;;7.47;4.05;;;;;;;5.65;64.07;99775.47;4363254;32;33786;-74
2022/01/20 12:22:52;;;;;;;6.00;3.65;;;;;;;5.67;64.13;99768.00;4361728;32;34166;-71
2022/01/20 12:25:28;;;;;;;5.85;4.10;;;;;;;5.84;63.07;99768.31;4363015;32;34257;-71
2022/01/20 12:28:03;;;;;;;7.28;4.85;;;;;;;5.98;61.72;99767.19;4362653;32;33766;-73
2022/01/20 12:30:33;;;;;;;6.20;4.43;;;;;;;5.57;62.58;99764.94;4357907;32;33814;-71
2022/01/20 12:33:03;;;;;;;7.37;5.12;;;;;;;5.93;61.17;99746.28;4361455;32;35686;-70
2022/01/20 12:35:36;;;;;;;5.60;3.40;;;;;;;5.88;60.96;99743.44;4348937;32;34628;-69
2022/01/20 12:38:17;;;;;;;7.05;3.75;;;;;;;6.16;59.65;99748.44;4361396;32;34336;-68
2022/01/20 12:41:06;;;;;;;5.82;3.60;;;;;;;5.98;60.45;99739.44;4348982;32;32269;-72
2022/01/20 12:43:40;;;;;;;6.00;3.35;;;;;;;6.28;59.00;99743.13;4361218;32;33464;-68
2022/01/20 12:46:28;;;;;;;7.45;3.65;;;;;;;5.81;60.00;99739.97;4360995;32;34154;-70
2022/01/20 12:48:59;;;;;;;5.93;3.37;;;;;;;5.57;60.78;99740.72;4361215;32;33702;-70
2022/01/20 12:51:53;;;;;;;6.78;3.60;;;;;;;5.72;61.12;99736.72;4362582;32;33888;-70
2022/01/20 12:54:26;;;;;;;6.97;3.50;;;;;;;5.82;60.02;99719.25;4356271;32;34081;-67
2022/01/20 12:57:00;;;;;;;5.93;3.42;;;;;;;6.09;59.67;99714.50;4360317;32;34144;-70
2022/01/20 12:59:29;;;;;;;6.97;3.30;;;;;;;6.11;59.46;99721.34;4360673;32;33457;-72
2022/01/20 13:02:12;;;;;;;7.87;3.55;;;;;;;5.88;59.72;99721.88;4349014;32;32474;-69
2022/01/20 13:04:40;;;;;;;9.25;4.20;;;;;;;5.35;60.32;99722.22;4361056;32;34217;-70
2022/01/20 13:07:12;;;;;;;6.47;3.30;;;;;;;5.47;60.12;99706.22;4349171;32;33584;-70
2022/01/20 13:09:41;;;;;;;8.77;4.50;;;;;;;5.64;59.83;99701.16;4361068;32;33702;-72
2022/01/20 13:12:11;;;;;;;11.10;7.62;;;;;;;5.51;59.78;99685.94;4360965;32;33414;-69
2022/01/20 13:14:49;;;;;;;9.10;6.00;;;;;;;5.88;59.21;99696.84;4360749;32;33960;-68
2022/01/20 13:17:25;;;;;;;7.57;4.20;;;;;;;6.24;58.29;99706.94;4360378;32;33739;-69
2022/01/20 13:19:55;;;;;;;6.72;3.65;;;;;;;6.44;56.98;99703.22;4361118;32;32900;-69
2022/01/20 13:22:28;;;;;;;4.43;2.80;;;;;;;6.47;56.96;99684.72;4361147;32;33884;-70
2022/01/20 13:25:08;;;;;;;3.58;2.33;;;;;;;6.71;55.83;99687.56;4360550;32;34768;-73
2022/01/20 13:27:36;;;;;;;4.40;2.72;;;;;;;6.26;56.39;99683.25;4362217;32;34229;-72
2022/01/20 13:30:07;;;;;;;3.97;2.20;;;;;;;6.34;55.72;99668.69;4348028;32;32921;-71
2022/01/20 13:32:35;;;;;;;4.62;2.95;;;;;;;6.49;54.50;99668.31;4362219;32;34629;-73
2022/01/20 13:35:03;;;;;;;4.00;2.60;;;;;;;6.37;54.71;99660.97;4362115;32;34311;-67
2022/01/20 13:37:31;;;;;;;2.12;1.75;;;;;;;6.34;54.49;99669.50;4360891;32;34400;-73
2022/01/20 13:40:00;;;;;;;4.00;2.17;;;;;;;6.46;54.31;99664.22;4348464;32;32833;-68
2022/01/20 13:45:13;;;;;;;5.10;2.80;;;;;;;6.47;54.23;99686.59;4359995;32;34176;-73
2022/01/20 13:47:55;;;;;;;3.65;2.72;;;;;;;6.53;54.83;99675.72;4361991;32;34120;-68
2022/01/20 13:50:28;;;;;;;5.82;2.90;;;;;;;6.57;54.15;99670.72;4362132;32;33765;-68
2022/01/20 13:52:56;;;;;;;5.00;3.00;;;;;;;6.40;55.18;99681.25;4360847;32;33964;-70
2022/01/20 13:55:29;;;;;;;5.68;3.12;;;;;;;6.04;55.72;99655.91;4360399;32;34409;-67
2022/01/20 13:57:59;;;;;;;7.90;3.58;;;;;;;6.33;55.11;99661.66;4360931;32;34815;-68
2022/01/20 14:00:29;;;;;;;4.47;2.67;;;;;;;6.11;55.69;99658.53;4360467;32;34273;-73
2022/01/20 14:02:57;;;;;;;5.20;2.92;;;;;;;6.39;54.89;99651.84;4362148;32;34133;-72
2022/01/20 14:05:30;;;;;;;4.93;2.78;;;;;;;6.00;55.92;99645.81;4360474;32;34198;-73
2022/01/20 14:07:59;;;;;;;4.75;2.55;;;;;;;6.37;55.38;99652.06;4361713;32;35678;-72
2022/01/20 14:10:28;;;;;;;4.75;2.58;;;;;;;6.12;56.32;99662.91;4361798;32;34760;-73
2022/01/20 14:12:56;;;;;;;3.97;2.30;;;;;;;6.14;56.06;99669.69;4360645;32;34532;-70
2022/01/20 14:15:25;;;;;;;5.60;3.22;;;;;;;6.20;55.19;99662.62;4361321;32;34203;-72
2022/01/20 14:17:56;;;;;;;4.82;2.55;;;;;;;5.82;56.53;99670.78;4360030;32;34133;-71
2022/01/20 14:20:29;;;;;;;4.90;2.70;;;;;;;5.94;56.00;99656.41;4360756;32;34512;-70
2022/01/20 14:23:00;;;;;;;4.82;2.28;;;;;;;5.84;56.01;99653.38;4360927;32;33922;-70
2022/01/20 14:25:29;;;;;;;4.55;2.90;;;;;;;5.70;55.62;99646.44;4360415;32;34890;-71
2022/01/20 14:27:57;;;;;;;3.83;2.10;;;;;;;5.95;54.59;99647.28;4360534;32;35064;-71
2022/01/20 14:30:27;;;;;;;4.37;2.37;;;;;;;5.71;54.36;99643.53;4361220;32;33973;-70
2022/01/20 14:32:55;;;;;;;3.65;2.22;;;;;;;5.28;54.47;99638.06;4361334;32;34768;-70
2022/01/20 14:35:25;;;;;;;2.97;2.00;;;;;;;5.52;54.11;99623.78;4360352;32;34185;-70
2022/01/20 14:38:15;;;;;;;5.22;2.55;;;;;;;5.71;53.68;99627.37;4360759;32;33885;-72
2022/01/20 14:40:43;;;;;;;5.07;2.87;;;;;;;5.84;53.51;99626.44;4361617;32;33753;-71
2022/01/20 14:43:10;;;;;;;4.30;2.40;;;;;;;5.65;53.58;99619.34;4360315;32;33849;-73
2022/01/20 14:45:38;;;;;;;5.37;2.78;;;;;;;5.72;53.36;99620.97;4359841;32;34326;-72
2022/01/20 14:48:05;;;;;;;6.65;3.33;;;;;;;5.56;53.72;99624.19;4361237;32;34413;-71
2022/01/20 14:50:33;;;;;;;3.28;2.28;;;;;;;5.59;53.36;99623.75;4361868;32;33442;-73
2022/01/20 14:53:05;;;;;;;5.07;2.10;;;;;;;5.61;53.29;99627.03;4361575;32;34909;-70
2022/01/20 14:55:33;;;;;;;4.10;2.60;;;;;;;5.63;53.58;99613.37;4361584;32;35353;-73
2022/01/20 14:58:00;;;;;;;4.20;2.30;;;;;;;5.58;53.21;99614.03;4348261;32;35187;-71
2022/01/20 15:00:28;;;;;;;5.47;2.15;;;;;;;5.77;52.84;99606.84;4331288;33;34510;-71
2022/01/20 15:02:55;;;;;;;12.32;6.07;;;;;;;5.66;52.49;99602.16;4318663;33;34429;-70
2022/01/20 15:05:24;;;;;;;4.60;2.47;;;;;;;5.68;52.77;99614.38;4331943;33;34372;-74
2022/01/20 15:07:52;;;;;;;5.80;2.80;;;;;;;5.35;53.54;99620.00;4331763;33;34022;-70
2022/01/20 15:10:19;;;;;;;4.80;2.30;;;;;;;5.42;53.12;99607.34;4318850;33;33791;-69
2022/01/20 15:12:48;;;;;;;3.83;2.12;;;;;;;5.26;53.13;99621.31;4331986;33;34646;-70
2022/01/20 15:15:15;;;;;;;4.90;3.08;;;;;;;5.14;52.78;99616.62;4317994;33;34214;-73
2022/01/20 15:17:43;;;;;;;3.83;2.08;;;;;;;5.17;53.42;99620.75;4331687;33;34198;-73
2022/01/20 15:20:11;;;;;;;5.30;2.45;;;;;;;5.31;52.24;99627.69;4332306;33;33678;-71
2022/01/20 15:22:39;;;;;;;3.80;2.15;;;;;;;5.09;53.10;99639.81;4324450;32;34783;-73
2022/01/20 15:25:07;;;;;;;2.90;1.92;;;;;;;5.37;51.96;99636.75;4361288;32;34281;-73
2022/01/20 15:27:34;;;;;;;2.58;1.60;;;;;;;5.44;51.76;99631.31;4360414;32;34560;-71
2022/01/20 15:30:04;;;;;;;3.28;1.80;;;;;;;5.25;52.09;99633.94;4361765;32;34586;-68
2022/01/20 15:32:41;;;;;;;5.15;2.10;;;;;;;5.49;51.22;99615.34;4361915;32;34720;-70
2022/01/20 15:35:10;;;;;;;3.70;1.75;;;;;;;5.32;51.44;99613.19;4361397;32;33823;-74
2022/01/20 15:37:38;;;;;;;3.37;1.90;;;;;;;5.39;51.28;99647.28;4361561;32;35198;-75
2022/01/20 15:40:07;;;;;;;5.65;2.40;;;;;;;5.77;49.55;99660.69;4347975;32;33728;-76
2022/01/20 15:42:35;;;;;;;6.62;3.22;;;;;;;5.60;50.09;99679.22;4348135;32;33787;-78
2022/01/20 15:45:06;;;;;;;1.95;1.20;;;;;;;5.06;53.92;99772.84;4350240;32;34909;-72
2022/01/20 15:47:35;;;;;;;1.27;0.93;;;;;;;3.32;66.91;99797.97;4360060;32;34067;-70
2022/01/20 15:50:05;;;;;;;1.58;1.30;;;;;;;3.47;68.44;99809.38;4360340;32;34396;-68
2022/01/20 15:52:32;;;;;;;1.62;1.10;;;;;;;2.65;72.18;99812.88;4360727;32;34061;-73
2022/01/20 15:54:59;;;;;;;1.42;1.10;;;;;;;2.56;72.84;99796.13;4359825;32;34799;-71
2022/01/20 15:57:27;;;;;;;4.80;2.40;;;;;;;2.09;73.99;99797.59;4360719;32;34189;-72
2022/01/20 15:59:54;;;;;;;4.20;2.05;;;;;;;2.58;72.42;99795.94;4360274;32;33109;-71
2022/01/20 16:02:22;;;;;;;0.50;0.50;;;;;;;2.65;72.48;99802.16;4359902;32;32625;-69
2022/01/20 16:04:50;;;;;;;0.77;0.77;;;;;;;2.58;71.62;99807.47;4360482;32;34614;-74
2022/01/20 16:07:19;;;;;;;7.05;3.28;;;;;;;2.83;71.36;99807.00;4361250;32;34252;-74
2022/01/20 16:09:47;;;;;;;7.35;3.10;;;;;;;2.11;73.10;99816.97;4361345;32;34365;-74
2022/01/20 16:12:15;;;;;;;5.50;2.95;;;;;;;2.59;71.93;99810.97;4361185;32;34142;-74
2022/01/20 16:14:43;;;;;;;0.50;0.50;;;;;;;2.77;70.84;99808.63;4361148;32;35035;-69
2022/01/20 16:17:10;;;;;;;5.35;3.00;;;;;;;2.88;70.11;99828.69;4360907;32;34998;-70
2022/01/20 16:19:38;;;;;;;4.00;2.12;;;;;;;1.94;72.02;99850.38;4361333;32;34497;-71
2022/01/20 16:22:06;;;;;;;4.55;2.62;;;;;;;2.19;71.53;99846.28;4361189;32;34438;-69
2022/01/20 16:24:34;;;;;;;7.40;3.85;;;;;;;2.62;70.29;99843.56;4357685;32;35027;-66
2022/01/20 16:27:02;;;;;;;9.15;4.75;;;;;;;2.50;70.65;99847.78;4357206;32;33872;-65
2022/01/20 16:29:29;;;;;;;0.60;0.50;;;;;;;2.28;70.87;99852.34;4360407;32;35048;-65
2022/01/20 16:31:57;;;;;;;0.50;0.50;;;;;;;2.54;69.68;99846.38;4360457;32;34877;-66
2022/01/20 16:34:26;;;;;;;6.00;2.92;;;;;;;2.60;68.63;99834.06;4359974;32;35054;-65
2022/01/20 16:36:54;;;;;;;6.10;2.90;;;;;;;2.51;68.50;99851.31;4358756;32;34079;-65
2022/01/20 16:39:21;;;;;;;4.87;2.92;;;;;;;2.90;66.76;99858.81;4360459;32;33750;-66
2022/01/20 16:41:49;;;;;;;5.15;2.75;;;;;;;3.08;66.05;99856.44;4360453;32;33626;-65
2022/01/20 16:44:16;;;;;;;4.32;2.87;;;;;;;2.52;67.32;99861.00;4359630;32;35181;-65
2022/01/20 16:46:44;;;;;;;5.10;2.10;;;;;;;2.49;66.81;99864.06;4346188;32;34233;-65
2022/01/20 16:49:11;;;;;;;4.40;2.37;;;;;;;2.14;67.93;99854.09;4359826;32;34935;-64
2022/01/20 16:51:39;;;;;;;2.97;1.77;;;;;;;2.67;66.12;99854.50;4360275;32;33518;-66
2022/01/20 16:54:07;;;;;;;0.50;0.50;;;;;;;2.47;65.89;99858.91;4362483;32;34234;-68
2022/01/20 16:56:34;;;;;;;5.47;2.55;;;;;;;2.44;64.63;99862.78;4361757;32;34029;-65
2022/01/20 16:59:03;;;;;;;7.25;2.90;;;;;;;3.23;62.10;99860.84;4362684;32;33692;-66
2022/01/20 17:01:31;;;;;;;7.72;3.15;;;;;;;2.35;63.76;99855.06;4362053;32;33332;-66
2022/01/20 17:03:59;;;;;;;0.40;0.40;;;;;;;2.72;60.87;99851.28;4362190;32;34859;-64
2022/01/20 17:06:26;;;;;;;6.75;2.75;;;;;;;3.21;58.98;99850.31;4348429;32;32860;-65
2022/01/20 17:08:54;;;;;;;7.95;4.35;;;;;;;2.97;60.29;99867.72;4362075;32;34395;-65
2022/01/20 17:11:22;;;;;;;8.23;3.62;;;;;;;2.70;61.39;99873.91;4362103;32;34060;-66
2022/01/20 17:13:50;;;;;;;9.80;4.70;;;;;;;2.92;60.20;99874.69;4362452;32;34327;-66
2022/01/20 17:16:17;;;;;;;8.98;4.35;;;;;;;3.08;60.33;99875.19;4362246;32;34254;-67
2022/01/20 17:18:45;;;;;;;10.68;5.57;;;;;;;2.67;61.22;99869.75;4362169;32;34659;-67
2022/01/20 17:21:14;;;;;;;23.00;11.80;;;;;;;2.89;61.00;99886.63;4362284;32;33893;-65
2022/01/20 17:23:42;;;;;;;13.52;6.43;;;;;;;2.67;60.70;99870.59;4362345;32;35038;-65
2022/01/20 17:26:10;;;;;;;21.42;10.98;;;;;;;2.65;61.38;99863.78;4361584;32;34109;-65
2022/01/20 17:28:37;;;;;;;5.22;2.62;;;;;;;2.60;62.56;99869.72;4345619;32;34395;-65
2022/01/20 17:31:04;;;;;;;4.82;2.40;;;;;;;2.74;61.94;99867.12;4328685;33;33679;-67
2022/01/20 17:33:32;;;;;;;2.62;1.80;;;;;;;2.28;64.15;99879.13;4330113;33;34863;-66
2022/01/20 17:36:00;;;;;;;5.82;2.78;;;;;;;2.42;63.71;99890.78;4332535;33;34883;-68
2022/01/20 17:38:27;;;;;;;6.22;2.90;;;;;;;2.41;63.74;99886.44;4334916;32;34626;-68
2022/01/20 17:40:55;;;;;;;19.87;9.90;;;;;;;2.44;64.04;99886.03;4361605;32;33995;-68
2022/01/20 17:43:22;;;;;;;8.73;3.80;;;;;;;2.58;63.79;99893.19;4361555;32;34053;-68